Time;durP1;ratioP1;P1;durP2;ratioP2;P2;SDS_P1;SDS_P2;PMS_P1;PMS_P2;Temp;Humidity;BMP_temperature;BMP_pressure;BME280_temperature;BME280_humidity;BME280_pressure;Samples;Min_cycle;Max_cycle;Signal;HPM_P1;HPM_P2
2023/10/17 08:53:54;;;;;;;6.03;3.60;;;6.70;89.80;;;;;;5062828;28;20511;-38
2023/10/17 08:56:22;;;;;;;5.90;3.50;;;6.70;90.50;;;;;;5060848;28;20068;-38
2023/10/17 08:59:03;;;;;;;11.32;3.85;;;6.90;90.40;;;;;;5031533;28;20062;-38
2023/10/17 09:01:30;;;;;;;9.85;3.63;;;7.20;89.80;;;;;;5025082;28;20520;-38
2023/10/17 09:04:00;;;;;;;9.85;3.78;;;7.70;88.10;;;;;;5029452;28;20064;-39
2023/10/17 09:06:32;;;;;;;4.18;2.92;;;8.00;86.60;;;;;;5010205;28;20585;-39
2023/10/17 09:09:19;;;;;;;6.65;3.00;;;8.40;85.60;;;;;;4994425;28;21233;-39
2023/10/17 09:14:43;;;;;;;5.57;3.08;;;9.10;82.50;;;;;;5002894;28;20057;-38
2023/10/17 09:17:10;;;;;;;6.10;2.40;;;9.30;81.20;;;;;;4995872;28;20426;-36
2023/10/17 09:19:46;;;;;;;6.80;2.97;;;9.60;80.00;;;;;;4993466;28;20046;-36
2023/10/17 09:22:15;;;;;;;8.15;3.42;;;9.80;78.10;;;;;;4990904;28;20475;-36
2023/10/17 09:24:48;;;;;;;6.35;2.75;;;10.00;77.40;;;;;;4998597;28;20053;-36
2023/10/17 09:27:15;;;;;;;5.55;2.75;;;10.20;76.20;;;;;;4993309;28;20061;-37
2023/10/17 09:29:55;;;;;;;7.00;2.40;;;10.40;75.20;;;;;;4990167;28;20065;-37
2023/10/17 09:32:33;;;;;;;9.50;3.22;;;10.60;72.40;;;;;;4995067;28;20494;-37
2023/10/17 09:35:06;;;;;;;6.43;2.80;;;10.70;71.50;;;;;;4994038;28;20406;-35
2023/10/17 09:37:33;;;;;;;6.32;2.60;;;10.80;71.20;;;;;;4995081;28;20053;-36
2023/10/17 09:40:11;;;;;;;5.50;2.50;;;11.00;71.20;;;;;;4995064;28;20057;-36
2023/10/17 09:42:40;;;;;;;5.20;2.53;;;11.10;70.40;;;;;;4993448;28;20061;-39
2023/10/17 09:45:10;;;;;;;4.38;2.30;;;11.20;70.30;;;;;;4996284;28;21455;-36
2023/10/17 09:47:41;;;;;;;5.57;2.10;;;11.30;68.00;;;;;;4997004;28;20061;-36
2023/10/17 09:50:12;;;;;;;4.70;2.00;;;11.40;67.40;;;;;;4995264;28;20054;-36
2023/10/17 09:52:40;;;;;;;4.30;2.10;;;11.50;66.80;;;;;;5003259;28;20525;-36
2023/10/17 09:55:13;;;;;;;7.50;2.28;;;11.70;66.70;;;;;;5014360;28;20056;-36
2023/10/17 09:57:50;;;;;;;3.38;1.88;;;11.70;65.80;;;;;;4998577;28;20058;-36
2023/10/17 10:00:29;;;;;;;4.45;1.85;;;11.80;65.20;;;;;;5010326;28;20577;-36
2023/10/17 10:02:59;;;;;;;4.60;1.98;;;11.90;64.40;;;;;;5014064;28;20050;-36
2023/10/17 10:05:29;;;;;;;8.07;2.25;;;12.00;64.00;;;;;;4999879;28;20046;-37
2023/10/17 10:08:02;;;;;;;7.05;2.17;;;12.10;63.30;;;;;;4998023;28;20065;-36
2023/10/17 10:10:51;;;;;;;3.33;2.17;;;12.10;62.90;;;;;;4996457;28;20059;-36
2023/10/17 10:13:19;;;;;;;4.47;1.55;;;12.20;62.10;;;;;;4998437;28;21100;-36
2023/10/17 10:15:54;;;;;;;3.60;1.70;;;12.30;62.60;;;;;;4997057;28;20065;-36
2023/10/17 10:18:54;;;;;;;3.88;1.70;;;12.30;62.80;;;;;;4983172;28;20080;-35
2023/10/17 10:21:22;;;;;;;6.60;2.10;;;12.40;61.30;;;;;;4993328;28;20059;-36
2023/10/17 10:23:54;;;;;;;4.43;1.52;;;12.50;61.60;;;;;;5000862;28;20529;-36
2023/10/17 10:26:24;;;;;;;4.72;1.70;;;12.60;61.10;;;;;;4999963;28;20506;-37
2023/10/17 10:28:51;;;;;;;5.18;1.70;;;12.60;60.40;;;;;;4998472;28;20057;-36
2023/10/17 10:31:34;;;;;;;4.63;2.00;;;12.60;59.80;;;;;;4998818;28;20049;-37
2023/10/17 10:34:01;;;;;;;4.00;1.80;;;12.70;59.00;;;;;;4997930;28;20064;-36
2023/10/17 10:36:28;;;;;;;6.78;1.70;;;12.70;59.20;;;;;;4998019;28;20050;-37
2023/10/17 10:39:08;;;;;;;4.22;1.75;;;12.70;58.40;;;;;;5001957;28;20057;-38
2023/10/17 10:41:37;;;;;;;5.13;1.58;;;12.70;58.90;;;;;;5000848;28;20050;-37
2023/10/17 10:44:06;;;;;;;3.00;1.45;;;12.70;58.30;;;;;;4998604;28;20050;-36
2023/10/17 10:46:34;;;;;;;2.90;1.35;;;12.70;58.30;;;;;;5000717;28;20057;-38
2023/10/17 10:49:01;;;;;;;4.82;1.70;;;12.70;58.30;;;;;;5000319;28;20057;-36
2023/10/17 10:51:28;;;;;;;2.10;1.48;;;12.70;58.40;;;;;;4999026;28;20038;-37
2023/10/17 10:53:56;;;;;;;2.30;1.10;;;12.70;58.10;;;;;;4998679;28;20050;-36
2023/10/17 10:56:25;;;;;;;4.88;1.40;;;12.70;57.50;;;;;;4999421;28;20054;-36
2023/10/17 10:58:56;;;;;;;3.88;1.20;;;12.70;57.30;;;;;;4998331;28;20395;-37
2023/10/17 11:01:25;;;;;;;4.82;1.63;;;12.70;57.30;;;;;;4996679;28;20425;-37
2023/10/17 11:03:53;;;;;;;6.05;1.50;;;12.70;57.40;;;;;;4997764;28;20057;-36
2023/10/17 11:06:24;;;;;;;2.08;1.40;;;12.70;57.20;;;;;;5000535;28;20070;-36
2023/10/17 11:08:53;;;;;;;2.47;1.40;;;12.70;56.70;;;;;;4999038;28;20064;-36
2023/10/17 11:11:21;;;;;;;4.22;1.42;;;12.70;56.80;;;;;;5000103;28;20779;-37
2023/10/17 11:13:50;;;;;;;2.72;1.20;;;12.70;56.70;;;;;;4998621;28;20049;-37
2023/10/17 11:16:19;;;;;;;3.33;1.33;;;12.70;56.90;;;;;;4998242;28;20085;-36
2023/10/17 11:18:47;;;;;;;5.28;1.40;;;12.80;56.50;;;;;;4997370;28;20053;-36
2023/10/17 11:21:18;;;;;;;3.15;1.38;;;12.80;56.50;;;;;;4997094;28;20057;-36
2023/10/17 11:23:51;;;;;;;4.88;1.38;;;12.80;56.40;;;;;;4998666;28;20038;-37
2023/10/17 11:26:21;;;;;;;2.67;1.27;;;12.80;56.00;;;;;;4999806;28;20057;-38
2023/10/17 11:28:51;;;;;;;5.38;1.27;;;12.90;56.20;;;;;;4999012;28;20049;-37
2023/10/17 11:31:22;;;;;;;2.80;1.27;;;12.90;56.10;;;;;;4999097;28;20541;-36
2023/10/17 11:33:54;;;;;;;2.70;1.30;;;12.90;56.00;;;;;;4995420;28;20061;-36
2023/10/17 11:36:22;;;;;;;4.18;1.63;;;13.00;55.90;;;;;;4998708;28;20062;-36
2023/10/17 11:38:54;;;;;;;3.55;1.10;;;13.00;56.00;;;;;;4996776;28;20058;-36
2023/10/17 11:41:28;;;;;;;2.25;1.23;;;13.10;55.80;;;;;;4996264;28;20054;-36
2023/10/17 11:43:55;;;;;;;5.05;1.30;;;13.10;56.00;;;;;;4995262;28;20985;-36
2023/10/17 11:46:31;;;;;;;5.15;1.67;;;13.10;56.00;;;;;;4996064;28;20061;-35
2023/10/17 11:49:20;;;;;;;4.00;1.38;;;13.10;55.70;;;;;;4995007;28;20058;-36
2023/10/17 11:51:51;;;;;;;2.83;1.17;;;13.20;55.30;;;;;;4994444;28;20050;-38
2023/10/17 11:54:22;;;;;;;2.78;1.10;;;13.20;55.60;;;;;;4994787;28;20053;-38
2023/10/17 11:56:49;;;;;;;4.72;1.10;;;13.20;55.20;;;;;;4992724;28;20053;-39
2023/10/17 11:59:18;;;;;;;2.70;1.05;;;13.30;55.00;;;;;;4998839;28;20391;-36
2023/10/17 12:01:46;;;;;;;2.55;1.30;;;13.30;54.70;;;;;;4997080;28;20061;-37
2023/10/17 12:04:16;;;;;;;3.92;1.30;;;13.30;54.60;;;;;;4998629;28;20062;-37
2023/10/17 12:06:44;;;;;;;3.25;1.30;;;13.40;54.80;;;;;;4999858;28;20065;-38
2023/10/17 12:09:22;;;;;;;3.42;1.10;;;13.40;54.90;;;;;;4998144;28;20088;-37
2023/10/17 12:11:51;;;;;;;2.70;1.25;;;13.40;54.40;;;;;;5002065;28;20058;-38
2023/10/17 12:14:20;;;;;;;2.10;1.35;;;13.40;54.40;;;;;;4999422;28;20049;-37
2023/10/17 12:16:53;;;;;;;4.28;1.40;;;13.50;54.40;;;;;;4997488;28;20049;-36
2023/10/17 12:19:21;;;;;;;1.95;1.25;;;13.50;54.10;;;;;;4999376;28;20054;-38
2023/10/17 12:21:48;;;;;;;4.38;1.40;;;13.50;54.10;;;;;;4997663;28;20069;-39
2023/10/17 12:24:19;;;;;;;2.83;1.20;;;13.60;53.90;;;;;;4999536;28;20049;-37
2023/10/17 12:26:49;;;;;;;2.28;0.98;;;13.60;54.10;;;;;;4993146;28;20062;-39
2023/10/17 12:29:17;;;;;;;1.27;0.82;;;13.60;54.00;;;;;;4995838;28;20125;-39
2023/10/17 12:31:45;;;;;;;1.90;1.08;;;13.60;53.90;;;;;;4996952;28;20064;-38
2023/10/17 12:34:15;;;;;;;2.28;1.10;;;13.70;54.00;;;;;;4995561;28;20056;-36
2023/10/17 12:36:46;;;;;;;2.90;0.98;;;13.70;53.80;;;;;;4999057;28;20057;-36
2023/10/17 12:39:16;;;;;;;1.73;0.80;;;13.70;53.40;;;;;;4998971;28;20065;-36
2023/10/17 12:41:45;;;;;;;3.05;0.80;;;13.80;53.20;;;;;;4998258;28;20172;-36
2023/10/17 12:44:13;;;;;;;1.98;0.80;;;13.80;53.20;;;;;;4999361;28;20060;-39
2023/10/17 12:46:41;;;;;;;2.25;1.00;;;13.90;53.10;;;;;;4996986;28;20387;-40
2023/10/17 12:49:10;;;;;;;5.07;1.20;;;13.90;52.90;;;;;;4996840;28;20060;-39
2023/10/17 12:51:39;;;;;;;1.63;0.70;;;14.00;52.70;;;;;;4997845;28;20882;-40
2023/10/17 12:54:07;;;;;;;4.22;1.17;;;14.00;52.50;;;;;;4997616;28;20053;-39
2023/10/17 12:56:36;;;;;;;2.35;1.02;;;14.00;52.40;;;;;;4996804;28;20066;-40
2023/10/17 12:59:04;;;;;;;1.25;0.70;;;14.00;52.20;;;;;;5000189;28;20088;-40
2023/10/17 13:01:31;;;;;;;1.20;0.90;;;14.10;52.00;;;;;;4995753;28;20057;-40
2023/10/17 13:03:58;;;;;;;1.73;1.10;;;14.10;51.90;;;;;;4997589;28;20053;-40
2023/10/17 13:06:26;;;;;;;2.90;1.00;;;14.10;51.80;;;;;;4996022;28;20502;-40
2023/10/17 13:08:57;;;;;;;3.05;1.10;;;14.20;51.60;;;;;;4995029;28;20065;-40
2023/10/17 13:11:24;;;;;;;5.40;1.45;;;14.20;51.40;;;;;;4998464;28;20513;-40
2023/10/17 13:13:52;;;;;;;2.67;0.75;;;14.20;51.40;;;;;;4996786;28;20057;-39
2023/10/17 13:16:20;;;;;;;2.33;0.80;;;14.20;51.20;;;;;;4998540;28;20398;-40
2023/10/17 13:18:50;;;;;;;4.07;0.75;;;14.30;51.20;;;;;;5000046;28;20053;-41
2023/10/17 13:21:17;;;;;;;2.95;0.90;;;14.30;50.90;;;;;;4997659;28;20054;-40
2023/10/17 13:23:45;;;;;;;2.70;0.85;;;14.30;51.00;;;;;;4994255;28;20062;-40
2023/10/17 13:26:15;;;;;;;2.65;0.90;;;14.30;50.90;;;;;;4998921;28;20050;-41
2023/10/17 13:28:43;;;;;;;2.10;0.90;;;14.30;50.70;;;;;;4997382;28;20054;-39
2023/10/17 13:31:11;;;;;;;2.22;0.73;;;14.40;50.60;;;;;;4994777;28;20065;-40
2023/10/17 13:33:38;;;;;;;1.38;0.90;;;14.30;50.40;;;;;;4992646;28;20062;-40
2023/10/17 13:36:06;;;;;;;2.25;0.95;;;14.30;50.30;;;;;;4994198;28;20521;-40
2023/10/17 13:38:37;;;;;;;2.25;0.88;;;14.40;49.90;;;;;;4996625;28;20316;-41
2023/10/17 13:41:05;;;;;;;1.83;0.70;;;14.40;49.80;;;;;;5000857;28;20081;-38
2023/10/17 13:43:34;;;;;;;2.30;0.88;;;14.40;49.70;;;;;;4997031;28;20046;-39
2023/10/17 13:46:07;;;;;;;1.20;0.80;;;14.40;49.50;;;;;;4999730;28;20061;-42
2023/10/17 13:48:35;;;;;;;1.95;0.88;;;14.40;49.30;;;;;;4999491;28;20050;-41
2023/10/17 13:51:04;;;;;;;2.75;0.95;;;14.40;49.30;;;;;;4998145;28;20058;-40
2023/10/17 13:53:31;;;;;;;1.70;0.90;;;14.40;49.20;;;;;;4999621;28;20057;-41
2023/10/17 13:55:58;;;;;;;1.38;0.80;;;14.30;49.40;;;;;;5001592;28;20065;-42
2023/10/17 13:58:26;;;;;;;1.90;1.00;;;14.30;49.70;;;;;;4997010;28;20054;-41
2023/10/17 14:00:55;;;;;;;1.20;0.80;;;14.30;49.60;;;;;;5001062;28;20509;-43
2023/10/17 14:03:23;;;;;;;2.97;1.00;;;14.30;49.50;;;;;;4999587;28;20075;-41
2023/10/17 14:05:51;;;;;;;4.30;1.20;;;14.30;49.40;;;;;;4999852;28;20054;-42
2023/10/17 14:08:21;;;;;;;3.22;0.90;;;14.30;49.20;;;;;;4999320;28;20056;-45
2023/10/17 14:10:49;;;;;;;2.58;1.10;;;14.30;49.10;;;;;;5001408;28;20061;-41
2023/10/17 14:13:17;;;;;;;3.80;1.20;;;14.30;49.20;;;;;;5000051;28;20061;-43
2023/10/17 14:15:45;;;;;;;2.20;0.80;;;14.30;49.20;;;;;;5002639;28;20069;-41
2023/10/17 14:18:14;;;;;;;1.67;1.10;;;14.30;49.20;;;;;;5002274;28;20069;-42
2023/10/17 14:21:04;;;;;;;2.80;0.90;;;14.30;49.20;;;;;;4998890;28;20053;-41
2023/10/17 14:23:32;;;;;;;1.90;1.05;;;14.30;49.50;;;;;;4995316;28;20056;-42
2023/10/17 14:26:09;;;;;;;3.70;0.98;;;14.30;49.70;;;;;;5000919;28;20418;-42
2023/10/17 14:28:36;;;;;;;3.08;1.02;;;14.30;49.50;;;;;;5000045;28;20061;-41
2023/10/17 14:31:05;;;;;;;1.45;0.80;;;14.30;49.60;;;;;;5000768;28;20045;-42
2023/10/17 14:33:34;;;;;;;8.38;1.30;;;14.30;49.30;;;;;;4998273;28;20050;-43
2023/10/17 14:36:03;;;;;;;1.75;1.02;;;14.30;49.50;;;;;;5000101;28;20068;-41
2023/10/17 14:38:31;;;;;;;3.40;1.30;;;14.30;49.20;;;;;;4999553;28;20050;-41
2023/10/17 14:40:59;;;;;;;6.75;1.50;;;14.30;49.00;;;;;;4999509;28;20076;-40
2023/10/17 14:43:27;;;;;;;2.72;1.27;;;14.30;49.40;;;;;;4999379;28;20054;-45
2023/10/17 14:45:54;;;;;;;1.70;0.88;;;14.30;49.60;;;;;;5001494;28;20049;-41
2023/10/17 14:48:21;;;;;;;4.07;1.20;;;14.30;49.90;;;;;;5000735;28;20045;-41
2023/10/17 14:50:50;;;;;;;3.72;1.42;;;14.30;49.80;;;;;;4999555;28;20068;-41
2023/10/17 14:53:19;;;;;;;3.95;1.40;;;14.30;49.70;;;;;;5000727;28;20050;-41
2023/10/17 14:55:47;;;;;;;2.75;1.33;;;14.30;49.50;;;;;;4999642;28;20057;-45
2023/10/17 14:58:14;;;;;;;3.97;1.80;;;14.20;49.40;;;;;;4997961;28;20058;-40
2023/10/17 15:00:41;;;;;;;4.78;2.05;;;14.20;49.30;;;;;;5002152;28;20064;-42
2023/10/17 15:03:08;;;;;;;4.18;2.05;;;14.20;49.10;;;;;;5000205;28;20053;-43
2023/10/17 15:05:40;;;;;;;4.88;1.83;;;14.20;49.10;;;;;;4999495;28;20054;-40
2023/10/17 15:08:11;;;;;;;4.30;2.10;;;14.20;49.00;;;;;;4998810;28;20435;-41
2023/10/17 15:10:39;;;;;;;5.65;2.10;;;14.20;48.80;;;;;;5001828;28;20056;-41
2023/10/17 15:13:08;;;;;;;3.53;2.20;;;14.20;48.80;;;;;;5001254;28;20061;-44
2023/10/17 15:15:36;;;;;;;11.18;2.60;;;14.10;48.50;;;;;;4996946;28;20061;-40
2023/10/17 15:18:05;;;;;;;4.43;2.10;;;14.10;48.40;;;;;;4996958;28;20049;-41
2023/10/17 15:20:32;;;;;;;6.40;2.10;;;14.10;48.50;;;;;;4994803;28;20068;-40
2023/10/17 15:23:01;;;;;;;5.20;2.40;;;14.10;48.50;;;;;;4999605;28;20061;-42
2023/10/17 15:25:30;;;;;;;4.22;2.30;;;14.10;48.50;;;;;;4997438;28;20056;-39
2023/10/17 15:27:59;;;;;;;4.88;2.30;;;14.00;48.30;;;;;;4999664;28;20054;-41
2023/10/17 15:30:29;;;;;;;3.05;2.05;;;14.00;48.50;;;;;;4996973;28;20054;-44
2023/10/17 15:32:56;;;;;;;4.93;2.20;;;14.00;48.70;;;;;;4991870;28;20050;-40
2023/10/17 15:35:24;;;;;;;4.50;1.90;;;14.00;48.60;;;;;;4994867;28;20046;-42
2023/10/17 15:41:16;;;;;;;3.97;2.20;;;14.00;48.60;;;;;;5003942;28;20499;-40
2023/10/17 15:43:43;;;;;;;4.22;2.30;;;13.90;49.00;;;;;;4995964;28;20993;-40
2023/10/17 15:46:14;;;;;;;6.45;2.53;;;13.90;49.20;;;;;;4995779;28;20053;-41
2023/10/17 15:48:42;;;;;;;3.00;1.83;;;13.90;49.40;;;;;;4997400;28;20100;-42
2023/10/17 15:51:09;;;;;;;3.90;1.83;;;13.90;49.40;;;;;;4995213;28;20053;-42
2023/10/17 15:53:37;;;;;;;4.53;2.00;;;13.90;49.30;;;;;;4993600;28;20069;-41
2023/10/17 15:56:05;;;;;;;4.25;2.10;;;13.90;49.30;;;;;;4995619;28;21063;-41
2023/10/17 15:58:33;;;;;;;15.68;2.17;;;13.80;49.40;;;;;;4994578;28;20057;-42
2023/10/17 16:01:01;;;;;;;9.95;2.10;;;13.80;49.70;;;;;;4994371;28;20061;-40
2023/10/17 16:03:29;;;;;;;3.70;2.08;;;13.80;50.00;;;;;;4997345;28;20498;-41
2023/10/17 16:05:57;;;;;;;3.63;2.05;;;13.80;50.20;;;;;;4996001;28;20065;-41
2023/10/17 16:08:24;;;;;;;3.65;1.73;;;13.70;50.50;;;;;;4996056;28;20054;-46
2023/10/17 16:10:54;;;;;;;3.75;1.80;;;13.70;50.60;;;;;;4994066;28;20050;-42
2023/10/17 16:13:21;;;;;;;8.93;1.90;;;13.60;50.60;;;;;;4997765;28;20058;-41
2023/10/17 16:15:56;;;;;;;4.75;2.10;;;13.60;50.70;;;;;;4998030;28;20490;-41
2023/10/17 16:18:23;;;;;;;4.43;1.90;;;13.50;50.80;;;;;;4995301;28;20069;-41
2023/10/17 16:20:51;;;;;;;3.63;1.50;;;13.50;50.90;;;;;;4997449;28;20062;-40
2023/10/17 16:23:18;;;;;;;5.05;1.73;;;13.40;51.00;;;;;;4996704;28;20049;-41
2023/10/17 16:25:48;;;;;;;3.20;1.70;;;13.40;51.20;;;;;;4998342;28;20057;-40
2023/10/17 16:28:16;;;;;;;3.63;1.70;;;13.30;51.20;;;;;;5000391;28;20415;-40
2023/10/17 16:30:43;;;;;;;3.75;1.83;;;13.30;51.30;;;;;;4993354;28;20050;-43
2023/10/17 16:33:12;;;;;;;4.28;2.03;;;13.20;51.30;;;;;;4997072;28;20054;-41
2023/10/17 16:35:42;;;;;;;4.40;2.40;;;13.20;51.50;;;;;;4997208;28;20050;-41
2023/10/17 16:38:11;;;;;;;9.27;2.88;;;13.10;51.50;;;;;;4996687;28;20414;-40
2023/10/17 16:40:42;;;;;;;5.78;2.65;;;13.10;51.60;;;;;;4995877;28;20061;-41
2023/10/17 16:43:09;;;;;;;9.73;4.50;;;13.00;51.60;;;;;;4996101;28;20525;-41
2023/10/17 16:45:37;;;;;;;6.78;3.28;;;13.00;51.70;;;;;;4997136;28;20046;-43
2023/10/17 16:48:05;;;;;;;7.45;3.00;;;12.90;51.80;;;;;;4996003;28;20053;-40
2023/10/17 16:50:34;;;;;;;5.95;2.50;;;12.90;52.10;;;;;;4996309;28;20050;-42
2023/10/17 16:53:02;;;;;;;6.72;2.75;;;12.80;52.20;;;;;;4997082;28;20073;-44
2023/10/17 16:55:30;;;;;;;4.47;2.10;;;12.70;52.30;;;;;;4994531;28;20057;-46
2023/10/17 16:57:58;;;;;;;4.68;2.20;;;12.70;52.30;;;;;;4995849;28;20054;-40
2023/10/17 17:00:27;;;;;;;4.60;1.95;;;12.60;52.30;;;;;;4998132;28;20408;-40
2023/10/17 17:02:57;;;;;;;3.45;1.65;;;12.60;52.50;;;;;;4999214;28;20069;-41
2023/10/17 17:05:25;;;;;;;4.47;2.22;;;12.50;52.60;;;;;;4997830;28;20053;-43
2023/10/17 17:07:53;;;;;;;5.05;2.30;;;12.40;52.60;;;;;;4998433;28;20052;-40
2023/10/17 17:10:21;;;;;;;6.03;2.60;;;12.40;52.80;;;;;;5000067;28;20049;-42
2023/10/17 17:12:48;;;;;;;4.90;2.13;;;12.30;52.90;;;;;;5000281;28;20052;-41
2023/10/17 17:15:16;;;;;;;5.03;2.13;;;12.30;53.00;;;;;;5000704;28;20054;-41
2023/10/17 17:17:44;;;;;;;4.47;2.58;;;12.30;53.20;;;;;;5001771;28;20060;-41
2023/10/17 17:20:15;;;;;;;6.97;3.15;;;12.20;53.30;;;;;;5002157;28;20411;-41
2023/10/17 17:22:44;;;;;;;4.82;2.40;;;12.10;53.30;;;;;;5001161;28;20421;-40
2023/10/17 17:25:15;;;;;;;7.25;3.20;;;12.10;53.30;;;;;;5004512;28;21770;-42
2023/10/17 17:27:43;;;;;;;5.03;2.72;;;12.10;53.40;;;;;;5004502;28;20053;-42
2023/10/17 17:30:15;;;;;;;29.45;15.75;;;12.00;53.40;;;;;;5004718;28;20058;-42
2023/10/17 17:32:43;;;;;;;10.00;5.85;;;12.00;53.90;;;;;;5004341;28;20495;-41
2023/10/17 17:35:11;;;;;;;7.78;4.25;;;12.00;53.50;;;;;;5003608;28;20058;-45
2023/10/17 17:37:39;;;;;;;6.88;3.38;;;11.90;53.50;;;;;;5003486;28;20057;-41
2023/10/17 17:40:08;;;;;;;6.38;2.90;;;11.90;53.60;;;;;;5006474;28;20525;-41
2023/10/17 17:42:37;;;;;;;5.50;3.15;;;11.80;53.70;;;;;;5004240;28;20058;-47
2023/10/17 17:45:04;;;;;;;17.65;7.65;;;11.80;53.80;;;;;;5004052;28;20620;-41
2023/10/17 17:47:32;;;;;;;11.40;5.45;;;11.80;53.90;;;;;;5003613;28;20050;-42
2023/10/17 17:49:59;;;;;;;7.70;3.80;;;11.70;54.00;;;;;;5003982;28;20062;-40
2023/10/17 17:52:26;;;;;;;5.03;3.15;;;11.70;54.10;;;;;;5004696;28;20098;-43
2023/10/17 17:54:54;;;;;;;5.97;2.53;;;11.60;54.10;;;;;;5003983;28;20064;-43
2023/10/17 17:57:22;;;;;;;5.18;2.30;;;11.60;54.40;;;;;;5004611;28;20046;-44
2023/10/17 17:59:51;;;;;;;6.25;2.90;;;11.60;54.50;;;;;;5003617;28;20053;-42
2023/10/17 18:02:20;;;;;;;4.82;2.83;;;11.50;54.50;;;;;;5002840;28;20060;-42
2023/10/17 18:04:47;;;;;;;8.27;3.20;;;11.50;54.60;;;;;;5001974;28;20069;-40
2023/10/17 18:07:14;;;;;;;5.30;2.80;;;11.50;54.60;;;;;;5004057;28;20412;-41
2023/10/17 18:09:42;;;;;;;5.95;3.00;;;11.40;54.60;;;;;;5003397;28;20057;-42
2023/10/17 18:12:09;;;;;;;7.68;2.72;;;11.40;54.70;;;;;;5003695;28;20061;-41
2023/10/17 18:14:37;;;;;;;5.70;2.63;;;11.40;54.80;;;;;;4986053;28;20406;-41
2023/10/17 18:17:06;;;;;;;5.30;2.88;;;11.40;54.80;;;;;;5003706;28;20058;-42
2023/10/17 18:19:33;;;;;;;5.82;2.63;;;11.40;55.00;;;;;;5001909;28;20060;-42
2023/10/17 18:22:01;;;;;;;4.90;2.90;;;11.30;55.10;;;;;;5002198;28;20057;-41
2023/10/17 18:24:28;;;;;;;4.75;2.65;;;11.30;55.20;;;;;;5002064;28;20057;-42
2023/10/17 18:26:57;;;;;;;5.93;3.00;;;11.30;55.30;;;;;;5003605;28;20053;-43
2023/10/17 18:29:24;;;;;;;9.63;3.88;;;11.30;55.40;;;;;;5003389;28;21133;-41
2023/10/17 18:31:52;;;;;;;6.18;3.35;;;11.20;55.40;;;;;;5002476;28;20422;-43
2023/10/17 18:34:21;;;;;;;7.88;3.10;;;11.20;55.50;;;;;;5000253;28;20056;-42
2023/10/17 18:36:49;;;;;;;6.50;3.45;;;11.20;55.60;;;;;;5003174;28;20049;-41
2023/10/17 18:39:16;;;;;;;6.95;3.63;;;11.20;55.70;;;;;;5002524;28;20054;-41
2023/10/17 18:41:43;;;;;;;7.03;3.22;;;11.10;55.70;;;;;;5003638;28;20084;-40
2023/10/17 18:44:11;;;;;;;6.53;3.35;;;11.20;55.90;;;;;;5003494;28;20065;-41
2023/10/17 18:46:42;;;;;;;8.90;3.92;;;11.10;55.80;;;;;;5003784;28;20062;-40
2023/10/17 18:49:10;;;;;;;8.70;3.60;;;11.10;55.80;;;;;;5002197;28;20054;-42
2023/10/17 18:51:39;;;;;;;5.53;3.35;;;11.10;55.80;;;;;;5001677;28;20054;-40
2023/10/17 18:54:07;;;;;;;7.28;3.72;;;11.10;55.90;;;;;;5001865;28;20060;-42
2023/10/17 18:56:35;;;;;;;6.93;3.60;;;11.10;55.90;;;;;;5002740;28;20057;-41
2023/10/17 18:59:03;;;;;;;5.93;3.47;;;11.00;55.90;;;;;;5002750;28;20062;-41
2023/10/17 19:01:31;;;;;;;7.47;3.50;;;11.00;55.90;;;;;;5003399;28;20054;-42
2023/10/17 19:03:58;;;;;;;9.43;3.60;;;11.00;55.90;;;;;;4999935;28;20053;-41
2023/10/17 19:06:26;;;;;;;6.10;3.13;;;10.90;55.90;;;;;;4998682;28;20057;-41
2023/10/17 19:08:54;;;;;;;8.57;3.85;;;10.90;56.00;;;;;;4999479;28;20080;-43
2023/10/17 19:11:23;;;;;;;5.90;3.38;;;10.90;56.20;;;;;;4999316;28;20058;-43
2023/10/17 19:13:51;;;;;;;5.72;3.35;;;10.90;56.20;;;;;;4999973;28;20054;-41
2023/10/17 19:16:19;;;;;;;9.30;4.10;;;10.80;56.20;;;;;;4999110;28;20058;-44
2023/10/17 19:18:47;;;;;;;11.40;4.80;;;10.80;56.30;;;;;;5000897;28;20042;-42
2023/10/17 19:21:15;;;;;;;13.57;7.15;;;10.80;56.30;;;;;;4995022;28;20056;-42
2023/10/17 19:23:48;;;;;;;9.73;5.70;;;10.70;56.30;;;;;;4997521;28;20057;-41
2023/10/17 19:26:18;;;;;;;11.13;4.95;;;10.70;56.40;;;;;;4999524;28;20050;-42
2023/10/17 19:28:46;;;;;;;7.10;4.18;;;10.70;56.50;;;;;;5001905;28;20411;-41
2023/10/17 19:31:14;;;;;;;6.55;3.78;;;10.70;56.60;;;;;;4999150;28;20069;-45
2023/10/17 19:33:41;;;;;;;7.15;3.80;;;10.70;56.60;;;;;;5000261;28;20053;-41
2023/10/17 19:42:54;;;;;;;6.43;3.60;;;10.60;56.80;;;;;;5004507;28;20041;-41
2023/10/17 19:45:24;;;;;;;9.10;3.85;;;10.60;56.80;;;;;;4999455;28;20405;-42
2023/10/17 19:47:52;;;;;;;7.28;3.50;;;10.60;56.80;;;;;;4998380;28;20062;-42
2023/10/17 19:50:20;;;;;;;5.28;3.55;;;10.60;56.80;;;;;;4998594;28;20053;-41
2023/10/17 19:52:50;;;;;;;6.25;3.25;;;10.60;56.80;;;;;;4998766;28;20064;-42
2023/10/17 19:55:17;;;;;;;7.30;3.72;;;10.60;56.80;;;;;;5000738;28;20133;-43
2023/10/17 19:57:47;;;;;;;6.55;3.65;;;10.60;56.90;;;;;;5000965;28;20050;-43
2023/10/17 20:00:16;;;;;;;8.23;3.55;;;10.60;56.90;;;;;;4999384;28;20061;-42
2023/10/17 20:02:44;;;;;;;7.85;3.75;;;10.60;56.90;;;;;;4997474;28;20505;-42
2023/10/17 20:05:11;;;;;;;6.32;4.03;;;10.60;56.90;;;;;;4998631;28;20081;-42
2023/10/17 20:07:39;;;;;;;9.00;3.90;;;10.60;56.90;;;;;;5000828;28;20064;-41
2023/10/17 20:10:08;;;;;;;6.13;3.90;;;10.50;56.90;;;;;;4999331;28;20050;-43
2023/10/17 20:12:36;;;;;;;9.38;4.40;;;10.50;56.80;;;;;;4996326;28;20524;-41
2023/10/17 20:15:05;;;;;;;5.88;3.97;;;10.50;56.70;;;;;;4998689;28;20054;-41
2023/10/17 20:17:34;;;;;;;6.35;3.97;;;10.40;56.70;;;;;;4998803;28;20494;-43
2023/10/17 20:20:02;;;;;;;8.35;4.07;;;10.40;56.90;;;;;;4999536;28;20502;-42
2023/10/17 20:22:30;;;;;;;10.68;3.92;;;10.40;57.50;;;;;;4998346;28;20054;-41
2023/10/17 20:24:57;;;;;;;7.05;3.85;;;10.40;57.10;;;;;;4998529;28;20056;-40
2023/10/17 20:27:27;;;;;;;7.25;3.47;;;10.30;57.10;;;;;;4999399;28;20057;-43
2023/10/17 20:29:55;;;;;;;8.55;3.90;;;10.30;57.10;;;;;;4997594;28;20482;-41
2023/10/17 20:32:22;;;;;;;7.90;3.85;;;10.30;57.10;;;;;;4996279;28;20054;-44
2023/10/17 20:34:53;;;;;;;8.88;3.83;;;10.30;57.00;;;;;;4999020;28;20084;-42
2023/10/17 20:37:20;;;;;;;8.93;3.70;;;10.30;57.10;;;;;;4998664;28;20046;-41
2023/10/17 20:39:47;;;;;;;8.02;3.88;;;10.20;57.10;;;;;;4999293;28;20053;-42
2023/10/17 20:42:15;;;;;;;8.38;3.40;;;10.20;57.10;;;;;;4999379;28;20060;-41
2023/10/17 20:44:44;;;;;;;4.65;3.15;;;10.20;57.10;;;;;;4998598;28;20053;-41
2023/10/17 20:47:11;;;;;;;8.50;3.70;;;10.20;57.10;;;;;;5000008;28;20058;-41
2023/10/17 20:49:39;;;;;;;8.55;4.00;;;10.20;57.10;;;;;;5000377;28;20062;-46
2023/10/17 20:52:09;;;;;;;9.50;4.40;;;10.20;57.00;;;;;;4995746;28;20056;-40
2023/10/17 20:54:39;;;;;;;12.38;4.38;;;10.20;57.00;;;;;;4996469;28;20387;-41
2023/10/17 20:57:06;;;;;;;9.30;4.20;;;10.20;57.00;;;;;;4998897;28;20061;-42
2023/10/17 20:59:34;;;;;;;7.55;3.78;;;10.20;56.90;;;;;;4998513;28;20049;-41
2023/10/17 21:02:01;;;;;;;8.45;3.85;;;10.20;56.90;;;;;;4997869;28;20502;-40
2023/10/17 21:04:28;;;;;;;6.32;4.13;;;10.20;56.90;;;;;;4996451;28;20056;-41
2023/10/17 21:06:55;;;;;;;7.68;3.42;;;10.20;56.80;;;;;;4998687;28;20060;-40
2023/10/17 21:09:24;;;;;;;5.95;3.60;;;10.20;56.70;;;;;;4998107;28;20050;-41
2023/10/17 21:11:51;;;;;;;5.90;3.38;;;10.10;56.80;;;;;;4998877;28;20049;-47
2023/10/17 21:14:18;;;;;;;8.85;3.40;;;10.10;56.90;;;;;;4998758;28;20049;-47
2023/10/17 21:16:47;;;;;;;7.18;3.35;;;10.00;56.90;;;;;;4997912;28;20072;-43
2023/10/17 21:19:14;;;;;;;5.53;3.65;;;10.00;56.90;;;;;;4998169;28;20069;-40
2023/10/17 21:21:42;;;;;;;6.25;3.33;;;10.00;56.90;;;;;;4997984;28;20053;-42
2023/10/17 21:24:09;;;;;;;5.82;3.17;;;9.90;56.90;;;;;;4997061;28;20064;-41
2023/10/17 21:26:39;;;;;;;7.63;3.47;;;9.90;57.10;;;;;;4998997;28;20053;-45
2023/10/17 21:29:06;;;;;;;8.45;3.58;;;9.90;57.20;;;;;;4998403;28;20050;-40
2023/10/17 21:31:34;;;;;;;7.68;3.50;;;9.90;57.40;;;;;;4996288;28;20494;-41
2023/10/17 21:34:03;;;;;;;4.75;3.08;;;9.80;57.40;;;;;;4998772;28;20536;-42
2023/10/17 21:36:30;;;;;;;6.35;3.40;;;9.80;57.40;;;;;;4997973;28;20054;-42
2023/10/17 21:38:58;;;;;;;5.38;3.38;;;9.70;57.50;;;;;;4998594;28;20053;-40
2023/10/17 21:41:26;;;;;;;10.52;3.60;;;9.80;57.70;;;;;;4996756;28;20061;-42
2023/10/17 21:43:54;;;;;;;7.07;3.47;;;9.70;57.70;;;;;;4999311;28;20054;-40
2023/10/17 21:46:21;;;;;;;7.28;3.78;;;9.70;57.60;;;;;;4997733;28;20066;-44
2023/10/17 21:48:50;;;;;;;8.18;4.20;;;9.70;57.70;;;;;;4998496;28;20449;-40
2023/10/17 21:51:19;;;;;;;7.55;3.78;;;9.70;57.60;;;;;;4995790;28;20145;-42
2023/10/17 21:53:46;;;;;;;6.13;3.88;;;9.70;57.60;;;;;;4996688;28;20058;-40
2023/10/17 21:56:14;;;;;;;10.27;3.85;;;9.70;57.60;;;;;;4999227;28;20057;-41
2023/10/17 21:58:42;;;;;;;7.10;3.63;;;9.60;57.60;;;;;;5000013;28;20054;-40
2023/10/17 22:01:14;;;;;;;6.35;3.60;;;9.60;57.50;;;;;;4999564;28;20069;-40
2023/10/17 22:03:42;;;;;;;5.20;3.45;;;9.60;57.60;;;;;;5001879;28;20057;-43